createdAt,value
2022-12-13T00:01:16.591Z,29.35
2022-12-13T00:03:43.685Z,26.77
2022-12-13T00:06:11.963Z,27.67
2022-12-13T00:08:38.909Z,25.65
2022-12-13T00:11:07.658Z,26.40
2022-12-13T00:13:34.401Z,26.40
2022-12-13T00:16:03.978Z,26.85
2022-12-13T00:18:31.061Z,26.85
2022-12-13T00:20:58.693Z,26.33
2022-12-13T00:23:25.380Z,27.83
2022-12-13T00:25:51.915Z,25.73
2022-12-13T00:28:18.465Z,25.48
2022-12-13T00:30:45.686Z,26.38
2022-12-13T00:33:15.246Z,26.35
2022-12-13T00:35:42.210Z,26.95
2022-12-13T00:38:10.361Z,24.30
2022-12-13T00:40:36.938Z,25.55
2022-12-13T00:43:06.636Z,25.77
2022-12-13T00:45:33.766Z,26.95
2022-12-13T00:48:00.376Z,25.15
2022-12-13T00:50:27.061Z,25.63
2022-12-13T00:52:53.846Z,25.35
2022-12-13T00:55:20.329Z,24.23
2022-12-13T00:57:46.954Z,25.40
2022-12-13T01:00:13.632Z,23.90
2022-12-13T01:02:43.524Z,23.70
2022-12-13T01:05:11.356Z,24.95
2022-12-13T01:07:40.124Z,24.45
2022-12-13T01:10:07.910Z,23.67
2022-12-13T01:12:35.237Z,23.52
2022-12-13T01:15:02.073Z,23.30
2022-12-13T01:17:28.627Z,24.52
2022-12-13T01:19:55.247Z,23.92
2022-12-13T01:22:24.089Z,23.92
2022-12-13T01:24:50.932Z,24.58
2022-12-13T01:27:18.056Z,24.27
2022-12-13T01:29:44.678Z,24.15
2022-12-13T01:32:11.196Z,23.55
2022-12-13T01:34:37.799Z,24.95
2022-12-13T01:37:04.514Z,23.80
2022-12-13T01:39:31.210Z,24.23
2022-12-13T01:42:04.960Z,24.20
2022-12-13T01:44:56.208Z,23.45
2022-12-13T01:47:45.330Z,22.13
2022-12-13T01:50:22.358Z,21.95
2022-12-13T01:52:49.891Z,22.33
2022-12-13T01:55:22.392Z,22.42
2022-12-13T01:57:51.664Z,22.90
2022-12-13T02:00:18.803Z,22.97
2022-12-13T02:02:46.808Z,23.17
2022-12-13T02:05:36.439Z,22.83
2022-12-13T02:08:06.201Z,22.48
2022-12-13T02:10:32.993Z,23.67
2022-12-13T02:12:59.538Z,23.70
2022-12-13T02:15:31.330Z,23.50
2022-12-13T02:18:19.701Z,22.52
2022-12-13T02:20:55.210Z,22.92
2022-12-13T02:23:55.452Z,23.85
2022-12-13T02:26:34.251Z,22.60
2022-12-13T02:29:38.505Z,22.60
2022-12-13T02:32:10.800Z,22.90
2022-12-13T02:34:43.356Z,23.65
2022-12-13T02:37:17.945Z,24.23
2022-12-13T02:39:56.424Z,23.75
2022-12-13T02:42:34.919Z,24.30
2022-12-13T02:45:20.352Z,24.67
2022-12-13T02:47:49.735Z,22.98
2022-12-13T02:50:16.932Z,22.80
2022-12-13T02:52:46.536Z,22.98
2022-12-13T02:55:16.661Z,23.02
2022-12-13T02:57:45.185Z,23.20
2022-12-13T03:00:19.253Z,22.95
2022-12-13T03:02:46.661Z,24.27
2022-12-13T03:05:49.251Z,23.38
2022-12-13T03:08:44.619Z,23.48
2022-12-13T03:11:14.940Z,23.10
2022-12-13T03:14:13.654Z,22.05
2022-12-13T03:16:44.367Z,22.30
2022-12-13T03:19:13.637Z,23.13
2022-12-13T03:21:47.280Z,22.33
2022-12-13T03:24:17.279Z,22.77
2022-12-13T03:26:44.623Z,21.95
2022-12-13T03:29:11.251Z,20.52
2022-12-13T03:31:37.884Z,23.20
2022-12-13T03:34:04.447Z,23.20
2022-12-13T03:36:34.307Z,21.30
2022-12-13T03:39:00.951Z,22.33
2022-12-13T03:41:35.757Z,21.73
2022-12-13T03:44:07.634Z,21.05
2022-12-13T03:46:34.809Z,23.05
2022-12-13T03:49:01.750Z,21.80
2022-12-13T03:51:28.351Z,22.95
2022-12-13T03:53:54.945Z,20.63
2022-12-13T03:56:21.729Z,22.02
2022-12-13T03:58:48.276Z,21.80
2022-12-13T04:01:17.063Z,22.65
2022-12-13T04:03:46.417Z,22.45
2022-12-13T04:06:22.857Z,21.17
2022-12-13T04:08:51.676Z,23.60
2022-12-13T04:11:43.260Z,22.60
2022-12-13T04:14:11.424Z,22.75
2022-12-13T04:16:38.060Z,22.88
2022-12-13T04:19:04.769Z,23.50
2022-12-13T04:21:31.377Z,22.33
2022-12-13T04:24:00.964Z,23.98
2022-12-13T04:26:29.617Z,23.58
2022-12-13T04:28:56.400Z,23.02
2022-12-13T04:31:23.397Z,21.70
2022-12-13T04:33:50.901Z,22.50
2022-12-13T04:36:31.952Z,22.58
2022-12-13T04:39:22.256Z,22.38
2022-12-13T04:41:53.208Z,22.25
2022-12-13T04:44:27.903Z,21.55
2022-12-13T04:47:22.698Z,22.13
2022-12-13T04:49:49.366Z,22.70
2022-12-13T04:52:22.160Z,22.77
2022-12-13T04:54:55.783Z,22.48
2022-12-13T04:57:22.974Z,21.20
2022-12-13T04:59:49.797Z,22.83
2022-12-13T05:02:23.921Z,23.63
2022-12-13T05:04:53.875Z,20.73
2022-12-13T05:07:23.158Z,25.83
2022-12-13T05:09:49.858Z,22.98
2022-12-13T05:12:23.257Z,23.02
2022-12-13T05:14:51.573Z,23.15
2022-12-13T05:17:18.282Z,23.38
2022-12-13T05:19:45.098Z,24.25
2022-12-13T05:22:20.616Z,23.75
2022-12-13T05:24:55.739Z,23.77
2022-12-13T05:27:24.426Z,22.13
2022-12-13T05:30:02.402Z,22.63
2022-12-13T05:32:42.644Z,22.07
2022-12-13T05:35:22.628Z,20.77
2022-12-13T05:40:26.196Z,20.73
2022-12-13T05:43:01.049Z,20.55
2022-12-13T05:45:29.665Z,21.08
2022-12-13T05:47:56.289Z,22.65
2022-12-13T05:50:23.395Z,21.17
2022-12-13T05:52:50.270Z,22.40
2022-12-13T05:55:19.946Z,23.88
2022-12-13T05:57:50.714Z,25.02
2022-12-13T06:00:29.191Z,24.25
2022-12-13T06:03:00.467Z,23.08
2022-12-13T06:05:31.611Z,23.08
2022-12-13T06:07:58.928Z,22.17
2022-12-13T06:10:34.255Z,22.55
2022-12-13T06:13:20.939Z,21.95
2022-12-13T06:15:49.522Z,23.33
2022-12-13T06:18:16.214Z,23.27
2022-12-13T06:20:42.761Z,23.48
2022-12-13T06:23:09.445Z,23.50
2022-12-13T06:25:36.941Z,24.55
2022-12-13T06:28:03.645Z,26.10
2022-12-13T06:30:31.170Z,24.27
2022-12-13T06:32:57.804Z,24.67
2022-12-13T06:35:27.982Z,23.90
2022-12-13T06:38:01.484Z,24.95
2022-12-13T06:40:31.884Z,23.67
2022-12-13T06:42:58.487Z,21.63
2022-12-13T06:45:25.406Z,23.20
2022-12-13T06:47:52.019Z,24.38
2022-12-13T06:50:18.719Z,25.23
2022-12-13T06:52:48.410Z,25.55
2022-12-13T06:55:15.396Z,24.67
2022-12-13T06:57:51.007Z,24.58
2022-12-13T07:00:22.458Z,23.75
2022-12-13T07:02:54.599Z,23.63
2022-12-13T07:05:21.969Z,24.10
2022-12-13T07:07:48.694Z,23.58
2022-12-13T07:10:21.904Z,23.35
2022-12-13T07:12:49.899Z,24.10
2022-12-13T07:15:16.580Z,22.40
2022-12-13T07:17:43.197Z,22.48
2022-12-13T07:20:10.280Z,23.08
2022-12-13T07:22:43.235Z,24.23
2022-12-13T07:25:26.954Z,22.35
2022-12-13T07:28:04.238Z,22.48
2022-12-13T07:30:33.619Z,23.52
2022-12-13T07:33:05.007Z,24.40
2022-12-13T07:35:37.234Z,23.27
2022-12-13T07:38:09.369Z,23.42
2022-12-13T07:40:38.370Z,22.83
2022-12-13T07:43:06.140Z,25.20
2022-12-13T07:45:33.363Z,24.42
2022-12-13T07:48:04.451Z,25.42
2022-12-13T07:50:37.316Z,23.75
2022-12-13T07:53:08.669Z,23.85
2022-12-13T07:55:36.737Z,22.83
2022-12-13T07:58:14.644Z,23.75
2022-12-13T08:00:46.411Z,23.90
2022-12-13T08:03:24.098Z,23.50
2022-12-13T08:06:06.745Z,22.42
2022-12-13T08:08:34.225Z,23.48
2022-12-13T08:11:05.755Z,25.02
2022-12-13T08:13:33.266Z,24.48
2022-12-13T08:16:01.831Z,23.15
2022-12-13T08:18:29.752Z,24.40
2022-12-13T08:21:10.445Z,23.88
2022-12-13T08:23:50.719Z,22.52
2022-12-13T08:26:17.468Z,24.27
2022-12-13T08:28:44.240Z,25.95
2022-12-13T08:31:12.623Z,24.48
2022-12-13T08:33:40.656Z,24.77
2022-12-13T08:36:17.803Z,24.13
2022-12-13T08:38:45.482Z,26.27
2022-12-13T08:41:13.139Z,26.10
2022-12-13T08:43:40.783Z,22.50
2022-12-13T08:46:07.496Z,26.98
2022-12-13T08:48:34.535Z,26.15
2022-12-13T08:51:35.914Z,28.40
2022-12-13T08:54:09.965Z,32.85
2022-12-13T08:56:38.280Z,31.67
2022-12-13T08:59:05.046Z,26.75
2022-12-13T09:01:32.843Z,23.85
2022-12-13T09:03:59.521Z,24.98
2022-12-13T09:06:26.205Z,23.70
2022-12-13T09:08:54.558Z,24.58
2022-12-13T09:11:36.533Z,24.40
2022-12-13T09:14:04.866Z,23.45
2022-12-13T09:16:35.692Z,25.45
2022-12-13T09:19:24.724Z,25.30
2022-12-13T09:21:51.482Z,26.97
2022-12-13T09:24:24.461Z,25.58
2022-12-13T09:26:57.329Z,24.75
2022-12-13T09:29:24.528Z,23.85
2022-12-13T09:31:53.428Z,24.35
2022-12-13T09:34:20.293Z,27.40
2022-12-13T09:36:47.075Z,24.90
2022-12-13T09:39:13.646Z,23.73
2022-12-13T09:41:51.028Z,23.55
2022-12-13T09:44:32.611Z,24.63
2022-12-13T09:47:03.460Z,23.58
2022-12-13T09:49:36.871Z,25.25
2022-12-13T09:52:10.585Z,24.92
2022-12-13T09:54:47.856Z,24.52
2022-12-13T09:57:32.777Z,24.48
2022-12-13T10:00:08.008Z,24.25
2022-12-13T10:02:46.854Z,25.45
2022-12-13T10:05:42.368Z,24.40
2022-12-13T10:08:16.725Z,24.77
2022-12-13T10:10:46.265Z,23.85
2022-12-13T10:15:48.525Z,24.98
2022-12-13T10:18:34.107Z,24.75
2022-12-13T10:21:04.837Z,24.13
2022-12-13T10:23:42.594Z,24.65
2022-12-13T10:26:24.207Z,24.77
2022-12-13T10:29:02.868Z,25.00
2022-12-13T10:31:29.582Z,25.52
2022-12-13T10:34:04.765Z,24.35
2022-12-13T10:36:38.399Z,26.25
2022-12-13T10:39:40.438Z,25.85
2022-12-13T10:42:22.645Z,24.95
2022-12-13T10:45:22.979Z,29.30
2022-12-13T10:47:50.899Z,28.83
2022-12-13T10:50:29.278Z,26.42
2022-12-13T10:52:57.755Z,23.60
2022-12-13T10:55:33.623Z,22.95
2022-12-13T10:58:19.359Z,23.77
2022-12-13T11:00:49.111Z,22.75
2022-12-13T11:03:32.919Z,26.17
2022-12-13T11:06:26.918Z,24.48
2022-12-13T11:08:54.660Z,22.90
2022-12-13T11:11:30.192Z,22.38
2022-12-13T11:14:01.583Z,22.30
2022-12-13T11:16:33.940Z,22.15
2022-12-13T11:19:04.428Z,22.23
2022-12-13T11:21:37.443Z,21.80
2022-12-13T11:24:08.035Z,21.10
2022-12-13T11:26:39.170Z,19.92
2022-12-13T11:29:30.740Z,19.33
2022-12-13T11:32:15.658Z,21.92
2022-12-13T11:35:03.183Z,20.60
2022-12-13T11:37:45.322Z,19.00
2022-12-13T11:40:16.821Z,19.20
2022-12-13T11:42:50.011Z,19.00
2022-12-13T11:45:39.894Z,19.58
2022-12-13T11:48:09.627Z,19.55
2022-12-13T11:50:40.530Z,18.55
2022-12-13T11:53:23.269Z,18.48
2022-12-13T11:55:59.452Z,18.13
2022-12-13T11:59:01.103Z,18.38
2022-12-13T12:01:23.560Z,17.98
2022-12-13T12:03:53.964Z,18.30
2022-12-13T12:06:22.620Z,17.98
2022-12-13T12:09:07.337Z,13.13
2022-12-13T12:11:46.289Z,17.35
2022-12-13T12:14:22.152Z,18.35
2022-12-13T12:16:59.823Z,20.92
2022-12-13T12:19:38.131Z,19.67
2022-12-13T12:22:22.929Z,18.30
2022-12-13T12:25:07.824Z,17.25
2022-12-13T12:27:36.811Z,18.48
2022-12-13T12:30:12.377Z,20.20
2022-12-13T12:33:26.824Z,18.77
2022-12-13T12:36:13.951Z,17.92
2022-12-13T12:38:49.369Z,19.02
2022-12-13T12:41:39.330Z,18.58
2022-12-13T12:44:50.534Z,18.35
2022-12-13T12:47:57.812Z,17.70
2022-12-13T12:50:44.395Z,19.42
2022-12-13T12:53:26.873Z,19.20
2022-12-13T12:56:16.223Z,20.23
2022-12-13T12:59:19.950Z,18.55
2022-12-13T13:02:18.248Z,20.25
2022-12-13T13:04:50.086Z,19.55
2022-12-13T13:07:24.159Z,19.80
2022-12-13T13:09:55.136Z,19.55
2022-12-13T13:12:30.441Z,20.17
2022-12-13T13:14:58.642Z,19.88
2022-12-13T13:17:25.345Z,19.10
2022-12-13T13:20:23.443Z,20.70
2022-12-13T13:23:10.309Z,19.67
2022-12-13T13:25:54.370Z,20.25
2022-12-13T13:28:25.809Z,19.48
2022-12-13T13:31:19.174Z,18.38
2022-12-13T13:33:48.289Z,18.80
2022-12-13T13:36:40.518Z,18.98
2022-12-13T13:39:54.425Z,18.80
2022-12-13T13:42:25.648Z,18.10
2022-12-13T13:44:52.422Z,17.33
2022-12-13T13:47:25.001Z,18.70
2022-12-13T13:50:12.988Z,17.90
2022-12-13T13:53:01.889Z,17.98
2022-12-13T13:55:43.620Z,18.55
2022-12-13T13:58:37.083Z,18.45
2022-12-13T14:01:35.912Z,17.40
2022-12-13T14:04:28.063Z,17.40
2022-12-13T14:07:27.334Z,18.60
2022-12-13T14:10:05.587Z,19.75
2022-12-13T14:13:06.790Z,17.67
2022-12-13T14:16:12.299Z,18.13
2022-12-13T14:19:29.390Z,18.17
2022-12-13T14:22:14.522Z,17.38
2022-12-13T14:25:09.931Z,18.98
2022-12-13T14:27:48.573Z,20.73
2022-12-13T14:30:27.818Z,19.33
2022-12-13T14:32:56.888Z,19.40
2022-12-13T14:35:26.923Z,18.33
2022-12-13T14:37:57.895Z,19.25
2022-12-13T14:40:33.816Z,17.90
2022-12-13T14:43:03.030Z,17.90
2022-12-13T14:45:39.683Z,18.40
2022-12-13T14:48:15.384Z,18.30
2022-12-13T14:50:44.572Z,20.20
2022-12-13T14:53:43.237Z,18.70
2022-12-13T14:56:28.034Z,17.17
2022-12-13T14:59:13.991Z,19.77
2022-12-13T15:01:41.349Z,19.70
2022-12-13T15:04:30.298Z,19.85
2022-12-13T15:07:14.328Z,18.40
2022-12-13T15:09:44.190Z,18.77
2022-12-13T15:12:25.322Z,19.90
2022-12-13T15:15:01.416Z,19.35
2022-12-13T15:17:39.591Z,21.38
2022-12-13T15:20:30.569Z,24.65
2022-12-13T15:23:11.993Z,27.73
2022-12-13T15:25:41.797Z,25.35
2022-12-13T15:28:18.253Z,25.45
2022-12-13T15:30:48.734Z,23.77
2022-12-13T15:33:18.218Z,24.13
2022-12-13T15:35:47.959Z,27.00
2022-12-13T15:38:28.118Z,23.33
2022-12-13T15:40:56.240Z,23.65
2022-12-13T15:43:32.361Z,24.00
2022-12-13T15:45:59.855Z,22.90
2022-12-13T15:48:37.859Z,22.85
2022-12-13T15:51:13.435Z,25.05
2022-12-13T15:54:11.172Z,22.60
2022-12-13T15:57:02.004Z,23.38
2022-12-13T15:59:30.105Z,24.35
2022-12-13T16:01:58.711Z,22.52
2022-12-13T16:04:31.087Z,24.55
2022-12-13T16:06:57.868Z,23.33
2022-12-13T16:09:27.713Z,22.08
2022-12-13T16:12:03.520Z,22.98
2022-12-13T16:14:30.567Z,22.30
2022-12-13T16:17:25.239Z,22.80
2022-12-13T16:19:53.561Z,22.48
2022-12-13T16:22:23.557Z,22.05
2022-12-13T16:24:51.844Z,23.08
2022-12-13T16:27:19.744Z,22.27
2022-12-13T16:29:46.514Z,24.17
2022-12-13T16:32:13.230Z,24.42
2022-12-13T16:34:40.042Z,23.77
2022-12-13T16:37:08.666Z,25.05
2022-12-13T16:39:52.836Z,23.52
2022-12-13T16:42:19.534Z,24.33
2022-12-13T16:44:48.659Z,25.92
2022-12-13T16:47:24.425Z,25.33
2022-12-13T16:50:08.360Z,23.95
2022-12-13T16:52:43.180Z,24.63
2022-12-13T16:55:13.387Z,25.48
2022-12-13T16:57:40.027Z,23.63
2022-12-13T17:00:09.958Z,23.67
2022-12-13T17:02:37.515Z,24.50
2022-12-13T17:05:05.838Z,23.85
2022-12-13T17:07:33.405Z,24.13
2022-12-13T17:10:00.177Z,24.30
2022-12-13T17:12:26.782Z,24.55
2022-12-13T17:14:54.411Z,24.90
2022-12-13T17:17:45.490Z,24.60
2022-12-13T17:20:15.586Z,25.58
2022-12-13T17:22:43.504Z,23.75
2022-12-13T17:25:10.871Z,24.85
2022-12-13T17:27:38.141Z,24.63
2022-12-13T17:30:08.375Z,25.27
2022-12-13T17:32:36.285Z,26.90
2022-12-13T17:35:04.205Z,25.35
2022-12-13T17:37:32.142Z,28.90
2022-12-13T17:39:58.937Z,30.20
2022-12-13T17:42:26.036Z,35.55
2022-12-13T17:44:53.653Z,44.00
2022-12-13T17:47:20.902Z,45.17
2022-12-13T17:49:47.487Z,43.55
2022-12-13T17:52:14.035Z,37.03
2022-12-13T17:54:40.743Z,38.22
2022-12-13T17:57:10.252Z,33.50
2022-12-13T18:02:22.619Z,30.25
2022-12-13T18:07:17.976Z,25.55
2022-12-13T18:09:45.053Z,24.92
2022-12-13T18:12:12.623Z,27.42
2022-12-13T18:14:42.236Z,21.83
2022-12-13T18:19:35.228Z,20.40
2022-12-13T18:22:01.738Z,22.27
2022-12-13T18:24:28.247Z,20.75
2022-12-13T18:26:55.144Z,22.33
2022-12-13T18:29:21.672Z,19.67
2022-12-13T18:31:48.221Z,18.92
2022-12-13T18:34:14.737Z,17.52
2022-12-13T18:36:41.363Z,20.30
2022-12-13T18:39:08.037Z,18.83
2022-12-13T18:41:34.730Z,18.30
2022-12-13T18:44:04.626Z,16.60
2022-12-13T18:46:35.001Z,15.52
2022-12-13T18:49:02.240Z,16.13
2022-12-13T18:51:28.841Z,16.13
2022-12-13T18:53:56.252Z,15.38
2022-12-13T18:56:23.715Z,16.30
2022-12-13T18:58:50.975Z,15.57
2022-12-13T19:01:19.157Z,15.32
2022-12-13T19:03:47.445Z,14.52
2022-12-13T19:06:26.402Z,15.35
2022-12-13T19:08:56.299Z,13.50
2022-12-13T19:11:24.491Z,13.68
2022-12-13T19:13:51.282Z,15.85
2022-12-13T19:16:20.492Z,15.35
2022-12-13T19:18:48.306Z,15.50
2022-12-13T19:21:18.519Z,14.88
2022-12-13T19:23:49.500Z,15.73
2022-12-13T19:26:21.462Z,15.85
2022-12-13T19:28:48.231Z,15.60
2022-12-13T19:31:15.728Z,16.42
2022-12-13T19:33:42.976Z,16.60
2022-12-13T19:36:12.671Z,18.38
2022-12-13T19:38:41.804Z,16.17
2022-12-13T19:41:14.593Z,16.23
2022-12-13T19:43:42.131Z,16.55
2022-12-13T19:46:09.699Z,14.32
2022-12-13T19:48:40.317Z,13.98
2022-12-13T19:51:08.630Z,15.00
2022-12-13T19:53:39.097Z,13.93
2022-12-13T19:56:24.451Z,14.70
2022-12-13T19:58:51.403Z,14.95
2022-12-13T20:01:18.812Z,15.48
2022-12-13T20:03:47.104Z,14.40
2022-12-13T20:06:20.458Z,14.07
2022-12-13T20:08:47.296Z,15.68
2022-12-13T20:11:19.307Z,14.98
2022-12-13T20:13:47.100Z,15.63
2022-12-13T20:16:19.173Z,15.25
2022-12-13T20:18:46.909Z,14.98
2022-12-13T20:21:14.864Z,15.25
2022-12-13T20:23:49.439Z,12.52
2022-12-13T20:26:21.079Z,12.43
2022-12-13T20:28:51.245Z,13.20
2022-12-13T20:31:20.861Z,12.32
2022-12-13T20:33:58.686Z,12.77
2022-12-13T20:36:27.904Z,12.20
2022-12-13T20:39:02.303Z,13.02
2022-12-13T20:41:31.853Z,13.52
2022-12-13T20:43:59.846Z,13.13
2022-12-13T20:46:28.179Z,12.85
2022-12-13T20:48:56.201Z,12.73
2022-12-13T20:51:25.514Z,12.65
2022-12-13T20:53:53.170Z,14.63
2022-12-13T20:56:22.972Z,13.20
2022-12-13T21:01:20.032Z,12.38
2022-12-13T21:03:47.006Z,11.85
2022-12-13T21:06:13.900Z,12.80
2022-12-13T21:08:53.984Z,13.02
2022-12-13T21:11:26.560Z,13.85
2022-12-13T21:14:06.920Z,13.32
2022-12-13T21:16:46.926Z,12.57
2022-12-13T21:19:19.350Z,11.40
2022-12-13T21:21:47.196Z,12.32
2022-12-13T21:24:15.858Z,12.80
2022-12-13T21:26:42.784Z,12.77
2022-12-13T21:29:13.431Z,11.88
2022-12-13T21:31:44.416Z,11.73
2022-12-13T21:34:16.514Z,11.88
2022-12-13T21:36:45.698Z,11.88
2022-12-13T21:39:18.518Z,11.45
2022-12-13T21:41:45.649Z,12.07
2022-12-13T21:44:15.040Z,11.48
2022-12-13T21:49:28.956Z,11.88
2022-12-13T21:51:55.821Z,11.60
2022-12-13T21:54:22.783Z,12.15
2022-12-13T21:57:08.278Z,10.23
2022-12-13T21:59:34.993Z,9.98
2022-12-13T22:02:18.222Z,10.82
2022-12-13T22:04:49.153Z,11.10
2022-12-13T22:07:27.592Z,11.73
2022-12-13T22:09:55.424Z,11.45
2022-12-13T22:12:35.681Z,11.10
2022-12-13T22:15:04.703Z,10.20
2022-12-13T22:17:35.653Z,10.32
2022-12-13T22:20:06.052Z,10.15
2022-12-13T22:22:32.652Z,10.35
2022-12-13T22:24:59.398Z,10.60
2022-12-13T22:27:26.286Z,10.88
2022-12-13T22:29:57.640Z,9.95
2022-12-13T22:32:30.082Z,9.07
2022-12-13T22:34:57.413Z,8.98
2022-12-13T22:37:24.830Z,9.45
2022-12-13T22:39:51.719Z,9.98
2022-12-13T22:42:21.875Z,9.20
2022-12-13T22:44:48.784Z,9.32
2022-12-13T22:47:15.717Z,9.48
2022-12-13T22:49:42.291Z,9.30
2022-12-13T22:52:08.857Z,10.05
2022-12-13T22:54:35.846Z,9.38
2022-12-13T22:57:02.767Z,9.55
2022-12-13T22:59:29.447Z,10.48
2022-12-13T23:02:02.054Z,9.80
2022-12-13T23:04:29.202Z,9.82
2022-12-13T23:06:56.524Z,10.10
2022-12-13T23:09:23.231Z,9.13
2022-12-13T23:12:08.610Z,10.10
2022-12-13T23:14:36.470Z,9.80
2022-12-13T23:17:04.376Z,10.43
2022-12-13T23:19:41.612Z,9.88
2022-12-13T23:22:18.155Z,9.88
2022-12-13T23:24:44.732Z,9.98
2022-12-13T23:27:11.328Z,10.35
2022-12-13T23:29:38.167Z,10.43
2022-12-13T23:32:04.844Z,10.63
2022-12-13T23:34:31.504Z,10.25
2022-12-13T23:36:58.372Z,9.73
2022-12-13T23:39:24.981Z,9.75
2022-12-13T23:41:51.539Z,10.75
2022-12-13T23:44:19.018Z,10.45
2022-12-13T23:46:48.145Z,11.23
2022-12-13T23:51:42.181Z,10.15
2022-12-13T23:54:09.787Z,9.70
2022-12-13T23:56:36.361Z,9.85
2022-12-13T23:59:02.935Z,9.70
